Wise, VA

9:03 AM EST on March 02, 2015 (GMT -0500)
RAWS WISE VA US | Change Station
CLOSE
Current Station
Personal Weather Station
Location: Wise, VA
Elevation: 2529 ft
Nearby Weather Stations

Elev 2529 ft 36.97 °N, 82.56 °W | Updated 52 minutes ago

Light Snow
Light Snow
32 °F
Feels Like 28 °F
N
4
Wind Variable Wind from ESE
Gusts 11.0 mph

Today
High -- | Low -- °F
--% Chance of Precip.
Yesterday
High -- | Low -- °F
Precip. -- in
7:00 AM 6:25 PM
Waxing Gibbous, 91% visible
Pressure 30.38 in
Visibility 1.5 miles
Clouds Overcast 400 ft
Windchill 28 °F
Dew Point 32 °F
Humidity 99%
Rainfall 0.68 in
Snow Depth Not available.
UV 0 out of 12
Pollen 5.40 out of 12
Air Quality Not available.
Flu Activity Not available.
METAR KLNP 021355Z AUTO 33009KT 1 1/2SM -SN OVC004 00/00 A3038 RMK AO2

More Conditions Fewer Conditions

Pressure 30.38 in
Visibility 1.5 miles
Clouds Overcast 400 ft
Windchill 28 °F
Dew Point 32 °F
Humidity 99%
Rainfall 0.68 in
Snow Depth Not available.
UV 0 out of 12
Pollen 5.40 out of 12
Air Quality Not available.
Flu Activity Not available.
METAR KLNP 021355Z AUTO 33009KT 1 1/2SM -SN OVC004 00/00 A3038 RMK AO2

More Conditions Fewer Conditions

10-Day Weather Forecast

Almanac

Astronomy

Mar. 02, 2015 Rise Set
Actual Time
Civil Twilight
Nautical Twilight
Astronomical Twilight
Moon
Length of Visible Light
Length of Day
Tomorrow will be .
, % of the Moon is Illuminated

Today's Extremes

State Highs State Lows

Community

WunderPhotos

Upload Photos

1,801,784 photos uploaded!

WunderBlogs® & News

Nearby

Air Quality

  Air Quality AQ Index Pollutant
Not available.

Snow Depth

Station Depth Elevation

Earthquake Activity

City Distance Mag. Time & Date
Minimum magnitude displayed is 2.5.

Coastal Water Temperatures

Place Temperature

Nearby Weather Stations